createdAt,value
2023-01-01T00:02:03.708Z,44.74
2023-01-01T00:04:31.786Z,45.34
2023-01-01T00:06:58.116Z,43.95
2023-01-01T00:09:43.262Z,43.94
2023-01-01T00:12:09.695Z,43.80
2023-01-01T00:14:36.034Z,44.32
2023-01-01T00:17:02.469Z,43.86
2023-01-01T00:19:28.808Z,44.47
2023-01-01T00:21:55.319Z,43.65
2023-01-01T00:24:21.677Z,44.61
2023-01-01T00:26:48.005Z,43.94
2023-01-01T00:29:14.343Z,44.06
2023-01-01T00:31:40.718Z,44.89
2023-01-01T00:34:07.240Z,45.10
2023-01-01T00:36:33.652Z,45.14
2023-01-01T00:39:01.935Z,45.04
2023-01-01T00:41:28.276Z,45.68
2023-01-01T00:43:54.605Z,44.88
2023-01-01T00:46:21.024Z,44.25
2023-01-01T00:48:47.547Z,44.26
2023-01-01T00:51:14.175Z,44.41
2023-01-01T00:53:40.640Z,44.44
2023-01-01T00:56:07.581Z,44.49
2023-01-01T00:58:34.233Z,45.35
2023-01-01T01:01:00.730Z,46.05
2023-01-01T01:03:30.306Z,45.65
2023-01-01T01:05:59.708Z,45.59
2023-01-01T01:08:30.923Z,45.83
2023-01-01T01:11:08.875Z,46.00
2023-01-01T01:13:35.699Z,45.49
2023-01-01T01:16:08.439Z,45.74
2023-01-01T01:18:34.798Z,44.99
2023-01-01T01:21:01.159Z,45.25
2023-01-01T01:23:27.626Z,45.01
2023-01-01T01:25:54.066Z,44.73
2023-01-01T01:28:20.394Z,45.49
2023-01-01T01:30:46.787Z,44.91
2023-01-01T01:33:13.149Z,44.67
2023-01-01T01:35:39.544Z,44.28
2023-01-01T01:38:06.348Z,44.52
2023-01-01T01:40:33.305Z,44.63
2023-01-01T01:42:59.639Z,43.80
2023-01-01T01:45:32.993Z,43.92
2023-01-01T01:48:00.012Z,44.32
2023-01-01T01:50:34.046Z,44.08
2023-01-01T01:53:15.742Z,44.24
2023-01-01T01:55:48.719Z,44.77
2023-01-01T01:58:16.073Z,44.49
2023-01-01T02:00:42.449Z,44.37
2023-01-01T02:03:13.770Z,44.27
2023-01-01T02:05:41.303Z,44.88
2023-01-01T02:08:08.694Z,44.68
2023-01-01T02:10:35.130Z,44.28
2023-01-01T02:13:01.643Z,43.51
2023-01-01T02:15:34.585Z,44.20
2023-01-01T02:18:11.880Z,44.45
2023-01-01T02:21:04.359Z,44.60
2023-01-01T02:23:46.753Z,44.61
2023-01-01T02:26:19.579Z,44.57
2023-01-01T02:29:02.967Z,44.79
2023-01-01T02:31:39.794Z,45.06
2023-01-01T02:34:11.441Z,45.65
2023-01-01T02:36:46.055Z,43.94
2023-01-01T02:39:15.866Z,44.65
2023-01-01T02:41:46.803Z,44.09
2023-01-01T02:44:13.251Z,44.67
2023-01-01T02:46:39.605Z,45.05
2023-01-01T02:49:10.180Z,44.72
2023-01-01T02:52:01.025Z,44.82
2023-01-01T02:54:33.755Z,45.38
2023-01-01T02:57:10.218Z,44.67
2023-01-01T03:00:21.113Z,44.85
2023-01-01T03:03:10.031Z,45.26
2023-01-01T03:06:14.304Z,45.64
2023-01-01T03:09:03.532Z,45.49
2023-01-01T03:11:43.870Z,45.33
2023-01-01T03:14:24.740Z,45.29
2023-01-01T03:16:57.271Z,45.79
2023-01-01T03:19:28.223Z,45.67
2023-01-01T03:22:07.973Z,45.54
2023-01-01T03:24:51.423Z,45.88
2023-01-01T03:27:22.351Z,45.71
2023-01-01T03:29:52.690Z,46.53
2023-01-01T03:32:51.988Z,45.75
2023-01-01T03:35:21.118Z,45.85
2023-01-01T03:37:51.607Z,46.53
2023-01-01T03:40:21.041Z,46.12
2023-01-01T03:42:55.919Z,46.07
2023-01-01T03:45:28.274Z,45.97
2023-01-01T03:47:55.465Z,46.97
2023-01-01T03:50:28.540Z,46.99
2023-01-01T03:53:07.934Z,46.56
2023-01-01T03:55:44.065Z,46.80
2023-01-01T03:58:24.291Z,46.57
2023-01-01T04:00:57.862Z,46.88
2023-01-01T04:03:27.327Z,47.07
2023-01-01T04:05:54.417Z,46.97
2023-01-01T04:08:21.122Z,46.91
2023-01-01T04:10:53.724Z,47.42
2023-01-01T04:13:20.116Z,47.81
2023-01-01T04:15:46.516Z,48.23
2023-01-01T04:18:12.903Z,48.41
2023-01-01T04:20:39.245Z,48.80
2023-01-01T04:23:05.613Z,48.60
2023-01-01T04:25:32.459Z,49.00
2023-01-01T04:27:59.180Z,48.86
2023-01-01T04:30:26.786Z,48.82
2023-01-01T04:32:54.640Z,48.80
2023-01-01T04:35:21.032Z,48.33
2023-01-01T04:37:48.240Z,48.59
2023-01-01T04:40:15.046Z,49.20
2023-01-01T04:42:41.645Z,49.36
2023-01-01T04:45:08.627Z,49.50
2023-01-01T04:47:35.129Z,49.03
2023-01-01T04:50:01.535Z,49.43
2023-01-01T04:52:27.899Z,49.79
2023-01-01T04:54:54.245Z,50.15
2023-01-01T04:57:20.594Z,50.38
2023-01-01T04:59:46.953Z,50.57
2023-01-01T05:02:13.370Z,51.44
2023-01-01T05:04:39.861Z,51.18
2023-01-01T05:07:06.205Z,51.06
2023-01-01T05:09:32.552Z,50.52
2023-01-01T05:11:58.868Z,51.68
2023-01-01T05:14:26.248Z,51.59
2023-01-01T05:16:53.017Z,51.47
2023-01-01T05:19:19.408Z,51.17
2023-01-01T05:21:46.430Z,51.77
2023-01-01T05:24:13.212Z,50.96
2023-01-01T05:26:42.454Z,51.33
2023-01-01T05:29:15.589Z,51.03
2023-01-01T05:31:43.939Z,51.25
2023-01-01T05:34:10.441Z,50.52
2023-01-01T05:36:38.932Z,51.35
2023-01-01T05:39:07.000Z,51.39
2023-01-01T05:41:36.160Z,51.12
2023-01-01T05:44:04.992Z,51.30
2023-01-01T05:46:32.153Z,51.82
2023-01-01T05:48:58.584Z,51.95
2023-01-01T05:51:27.129Z,51.98
2023-01-01T05:53:54.925Z,51.24
2023-01-01T05:56:21.927Z,50.76
2023-01-01T05:58:48.394Z,51.09
2023-01-01T06:01:24.183Z,51.94
2023-01-01T06:03:51.456Z,51.26
2023-01-01T06:06:20.654Z,51.88
2023-01-01T06:08:54.554Z,52.53
2023-01-01T06:11:21.246Z,52.95
2023-01-01T06:13:48.413Z,52.61
2023-01-01T06:16:15.128Z,52.46
2023-01-01T06:18:41.619Z,53.42
2023-01-01T06:21:19.861Z,52.68
2023-01-01T06:23:46.469Z,53.13
2023-01-01T06:26:14.204Z,52.71
2023-01-01T06:28:41.602Z,52.37
2023-01-01T06:31:09.942Z,52.19
2023-01-01T06:33:37.363Z,52.40
2023-01-01T06:36:06.490Z,52.76
2023-01-01T06:38:34.818Z,53.21
2023-01-01T06:41:04.630Z,52.38
2023-01-01T06:43:33.142Z,52.56
2023-01-01T06:46:16.024Z,52.21
2023-01-01T06:48:42.562Z,52.11
2023-01-01T06:51:12.143Z,52.34
2023-01-01T06:53:38.603Z,52.61
2023-01-01T06:56:05.479Z,52.54
2023-01-01T06:58:32.045Z,53.15
2023-01-01T07:01:16.017Z,53.33
2023-01-01T07:03:44.031Z,54.73
2023-01-01T07:06:11.075Z,55.29
2023-01-01T07:08:37.748Z,56.49
2023-01-01T07:11:05.403Z,56.53
2023-01-01T07:13:31.799Z,56.52
2023-01-01T07:15:59.347Z,56.34
2023-01-01T07:18:28.726Z,55.32
2023-01-01T07:21:04.056Z,56.44
2023-01-01T07:23:33.473Z,56.92
2023-01-01T07:25:59.862Z,57.29
2023-01-01T07:28:27.272Z,57.71
2023-01-01T07:30:54.247Z,57.94
2023-01-01T07:33:23.200Z,58.48
2023-01-01T07:35:49.800Z,58.56
2023-01-01T07:38:16.260Z,59.92
2023-01-01T07:40:42.838Z,60.89
2023-01-01T07:43:10.141Z,62.34
2023-01-01T07:45:36.593Z,63.21
2023-01-01T07:48:03.164Z,64.50
2023-01-01T07:50:32.217Z,65.21
2023-01-01T07:52:58.910Z,65.14
2023-01-01T07:55:25.513Z,65.91
2023-01-01T07:57:51.883Z,66.77
2023-01-01T08:00:20.796Z,66.43
2023-01-01T08:02:47.696Z,66.52
2023-01-01T08:05:14.242Z,66.01
2023-01-01T08:07:40.759Z,66.27
2023-01-01T08:10:07.875Z,67.00
2023-01-01T08:12:34.310Z,66.70
2023-01-01T08:15:00.739Z,67.92
2023-01-01T08:17:27.086Z,67.48
2023-01-01T08:19:53.462Z,67.37
2023-01-01T08:22:19.828Z,67.26
2023-01-01T08:24:46.176Z,67.60
2023-01-01T08:27:14.522Z,67.18
2023-01-01T08:29:41.254Z,65.79
2023-01-01T08:32:10.171Z,65.36
2023-01-01T08:34:36.622Z,65.29
2023-01-01T08:37:03.060Z,65.27
2023-01-01T08:39:29.850Z,65.08
2023-01-01T08:41:56.201Z,64.63
2023-01-01T08:44:22.870Z,64.73
2023-01-01T08:46:49.538Z,64.94
2023-01-01T08:49:15.897Z,63.57
2023-01-01T08:51:42.228Z,64.14
2023-01-01T08:54:08.667Z,64.34
2023-01-01T08:56:37.539Z,63.82
2023-01-01T08:59:04.693Z,65.12
2023-01-01T09:01:31.279Z,64.30
2023-01-01T09:03:57.762Z,64.25
2023-01-01T09:06:24.287Z,64.00
2023-01-01T09:08:51.272Z,64.10
2023-01-01T09:11:23.601Z,64.23
2023-01-01T09:13:50.057Z,63.74
2023-01-01T09:16:16.488Z,62.87
2023-01-01T09:18:42.869Z,63.92
2023-01-01T09:21:09.290Z,64.17
2023-01-01T09:23:36.177Z,64.07
2023-01-01T09:26:04.747Z,64.32
2023-01-01T09:28:31.342Z,64.14
2023-01-01T09:30:57.878Z,63.76
2023-01-01T09:33:24.359Z,64.19
2023-01-01T09:35:50.786Z,64.03
2023-01-01T09:38:17.124Z,63.45
2023-01-01T09:41:18.342Z,62.78
2023-01-01T09:43:50.612Z,64.23
2023-01-01T09:46:17.367Z,64.07
2023-01-01T09:48:58.518Z,63.98
2023-01-01T09:51:30.242Z,64.34
2023-01-01T09:54:06.507Z,63.93
2023-01-01T09:56:35.761Z,63.65
2023-01-01T09:59:02.688Z,63.64
2023-01-01T10:01:56.118Z,63.52
2023-01-01T10:05:01.722Z,63.23
2023-01-01T10:07:30.974Z,63.66
2023-01-01T10:10:32.398Z,63.18
2023-01-01T10:13:20.515Z,63.36
2023-01-01T10:16:08.045Z,63.48
2023-01-01T10:18:38.286Z,63.85
2023-01-01T10:21:46.961Z,63.83
2023-01-01T10:24:27.789Z,63.68
2023-01-01T10:26:55.818Z,63.87
2023-01-01T10:29:53.044Z,64.10
2023-01-01T10:32:28.813Z,63.94
2023-01-01T10:34:56.515Z,63.65
2023-01-01T10:37:23.057Z,63.39
2023-01-01T10:39:50.183Z,63.08
2023-01-01T10:42:16.675Z,63.70
2023-01-01T10:44:43.670Z,63.75
2023-01-01T10:47:33.019Z,63.65
2023-01-01T10:50:07.878Z,63.27
2023-01-01T10:52:40.693Z,63.79
2023-01-01T10:55:21.402Z,63.36
2023-01-01T10:57:47.736Z,62.87
2023-01-01T11:00:26.934Z,63.61
2023-01-01T11:03:14.176Z,63.57
2023-01-01T11:05:40.617Z,63.15
2023-01-01T11:08:18.790Z,63.27
2023-01-01T11:10:51.970Z,63.32
2023-01-01T11:13:20.399Z,63.33
2023-01-01T11:15:47.421Z,62.84
2023-01-01T11:18:19.763Z,62.27
2023-01-01T11:20:55.232Z,63.28
2023-01-01T11:23:30.069Z,62.41
2023-01-01T11:25:59.018Z,62.58
2023-01-01T11:28:26.238Z,62.39
2023-01-01T11:31:12.595Z,61.58
2023-01-01T11:33:52.675Z,61.74
2023-01-01T11:36:24.574Z,62.22
2023-01-01T11:39:07.954Z,62.76
2023-01-01T11:42:00.528Z,62.37
2023-01-01T11:44:40.955Z,61.14
2023-01-01T11:47:19.786Z,62.38
2023-01-01T11:49:52.991Z,62.54
2023-01-01T11:52:38.738Z,60.92
2023-01-01T11:55:27.120Z,61.92
2023-01-01T11:58:11.992Z,61.81
2023-01-01T12:00:41.289Z,62.36
2023-01-01T12:03:39.732Z,61.96
2023-01-01T12:06:15.829Z,61.92
2023-01-01T12:08:46.935Z,61.44
2023-01-01T12:11:34.658Z,61.86
2023-01-01T12:14:32.978Z,61.83
2023-01-01T12:17:33.750Z,61.83
2023-01-01T12:20:21.903Z,62.13
2023-01-01T12:22:48.388Z,61.36
2023-01-01T12:25:18.271Z,61.50
2023-01-01T12:28:12.133Z,60.79
2023-01-01T12:30:51.689Z,61.41
2023-01-01T12:34:15.148Z,60.83
2023-01-01T12:36:53.877Z,61.34
2023-01-01T12:39:55.211Z,61.28
2023-01-01T12:42:42.876Z,61.31
2023-01-01T12:45:50.851Z,61.63
2023-01-01T12:48:41.947Z,60.98
2023-01-01T12:51:42.744Z,61.16
2023-01-01T12:54:46.035Z,60.92
2023-01-01T12:57:15.101Z,61.04
2023-01-01T12:59:47.219Z,60.96
2023-01-01T13:02:20.001Z,61.00
2023-01-01T13:04:49.765Z,61.99
2023-01-01T13:07:25.601Z,62.31
2023-01-01T13:09:53.370Z,61.26
2023-01-01T13:12:24.369Z,61.21
2023-01-01T13:14:51.622Z,61.96
2023-01-01T13:17:21.341Z,61.60
2023-01-01T13:20:13.896Z,61.31
2023-01-01T13:22:43.582Z,61.47
2023-01-01T13:25:10.807Z,61.22
2023-01-01T13:28:04.867Z,61.63
2023-01-01T13:30:37.794Z,61.52
2023-01-01T13:33:36.827Z,61.48
2023-01-01T13:36:09.155Z,61.59
2023-01-01T13:38:51.916Z,62.05
2023-01-01T13:41:36.995Z,61.98
2023-01-01T13:44:03.372Z,61.63
2023-01-01T13:46:51.771Z,61.97
2023-01-01T13:49:55.388Z,62.24
2023-01-01T13:52:36.506Z,62.09
2023-01-01T13:55:29.670Z,62.20
2023-01-01T13:58:32.892Z,63.00
2023-01-01T14:01:23.607Z,62.58
2023-01-01T14:03:55.127Z,62.14
2023-01-01T14:06:35.649Z,62.14
2023-01-01T14:09:15.203Z,61.81
2023-01-01T14:11:42.053Z,61.92
2023-01-01T14:14:24.220Z,62.19
2023-01-01T14:16:52.485Z,62.09
2023-01-01T14:19:20.568Z,62.56
2023-01-01T14:21:47.130Z,61.94
2023-01-01T14:24:18.226Z,62.42
2023-01-01T14:26:45.118Z,62.48
2023-01-01T14:29:19.605Z,62.79
2023-01-01T14:31:46.835Z,62.89
2023-01-01T14:34:28.013Z,62.88
2023-01-01T14:37:00.205Z,62.56
2023-01-01T14:39:29.275Z,61.87
2023-01-01T14:42:00.744Z,62.31
2023-01-01T14:44:35.651Z,62.35
2023-01-01T14:47:04.057Z,62.06
2023-01-01T14:49:34.601Z,61.94
2023-01-01T14:52:06.125Z,62.15
2023-01-01T14:54:38.077Z,61.99
2023-01-01T14:57:12.324Z,62.03
2023-01-01T14:59:46.399Z,62.23
2023-01-01T15:02:20.917Z,61.50
2023-01-01T15:04:48.278Z,61.65
2023-01-01T15:07:30.226Z,61.67
2023-01-01T15:10:02.342Z,61.90
2023-01-01T15:12:29.716Z,61.67
2023-01-01T15:14:57.992Z,61.17
2023-01-01T15:17:26.058Z,61.67
2023-01-01T15:20:19.202Z,62.38
2023-01-01T15:22:45.837Z,62.07
2023-01-01T15:25:14.647Z,61.88
2023-01-01T15:27:44.050Z,61.97
2023-01-01T15:30:29.560Z,61.79
2023-01-01T15:32:56.424Z,62.19
2023-01-01T15:35:32.025Z,62.02
2023-01-01T15:38:10.104Z,62.11
2023-01-01T15:40:36.953Z,62.17
2023-01-01T15:43:03.271Z,62.02
2023-01-01T15:45:36.415Z,61.83
2023-01-01T15:48:05.501Z,61.95
2023-01-01T15:50:50.338Z,62.10
2023-01-01T15:53:23.640Z,62.45
2023-01-01T15:56:00.219Z,61.85
2023-01-01T15:58:34.321Z,62.35
2023-01-01T16:01:05.354Z,62.42
2023-01-01T16:03:34.976Z,62.58
2023-01-01T16:06:01.625Z,63.25
2023-01-01T16:08:27.965Z,63.38
2023-01-01T16:10:54.281Z,64.45
2023-01-01T16:13:20.690Z,64.64
2023-01-01T16:16:01.469Z,65.41
2023-01-01T16:18:38.411Z,64.64
2023-01-01T16:21:05.654Z,65.31
2023-01-01T16:23:32.037Z,65.79
2023-01-01T16:25:58.354Z,65.23
2023-01-01T16:28:24.684Z,65.31
2023-01-01T16:30:52.067Z,65.66
2023-01-01T16:33:22.860Z,66.58
2023-01-01T16:35:50.508Z,66.99
2023-01-01T16:38:18.182Z,66.80
2023-01-01T16:40:44.515Z,68.33
2023-01-01T16:43:18.337Z,68.61
2023-01-01T16:45:45.164Z,68.83
2023-01-01T16:48:11.834Z,69.72
2023-01-01T16:50:38.229Z,69.28
2023-01-01T16:53:04.733Z,70.68
2023-01-01T16:55:31.221Z,71.64
2023-01-01T16:58:21.165Z,71.71
2023-01-01T17:00:43.998Z,72.71
2023-01-01T17:03:10.558Z,73.33
2023-01-01T17:05:43.643Z,73.73
2023-01-01T17:08:10.652Z,74.68
2023-01-01T17:10:36.977Z,75.55
2023-01-01T17:13:03.470Z,76.71
2023-01-01T17:15:31.735Z,77.50
2023-01-01T17:17:58.906Z,77.40
2023-01-01T17:20:26.587Z,77.79
2023-01-01T17:22:53.211Z,78.47
2023-01-01T17:25:19.691Z,79.76
2023-01-01T17:27:46.143Z,79.68
2023-01-01T17:30:13.516Z,80.60
2023-01-01T17:32:40.054Z,80.93
2023-01-01T17:35:07.400Z,80.93
2023-01-01T17:37:33.814Z,81.40
2023-01-01T17:40:00.321Z,82.12
2023-01-01T17:42:26.702Z,82.03
2023-01-01T17:44:53.079Z,82.76
2023-01-01T17:47:19.391Z,83.01
2023-01-01T17:49:48.415Z,82.48
2023-01-01T17:52:14.740Z,83.13
2023-01-01T17:54:41.074Z,83.37
2023-01-01T17:57:09.596Z,83.57
2023-01-01T17:59:35.927Z,83.88
2023-01-01T18:02:02.456Z,84.07
2023-01-01T18:04:29.101Z,83.82
2023-01-01T18:06:58.513Z,84.08
2023-01-01T18:09:28.828Z,84.43
2023-01-01T18:11:55.375Z,84.86
2023-01-01T18:14:24.707Z,85.56
2023-01-01T18:16:51.352Z,85.30
2023-01-01T18:19:17.770Z,85.59
2023-01-01T18:21:44.128Z,84.98
2023-01-01T18:24:15.209Z,85.20
2023-01-01T18:26:42.414Z,86.03
2023-01-01T18:29:08.859Z,85.44
2023-01-01T18:31:35.810Z,85.99
2023-01-01T18:34:04.106Z,86.45
2023-01-01T18:36:33.153Z,86.57
2023-01-01T18:39:01.007Z,86.16
2023-01-01T18:42:01.390Z,86.53
2023-01-01T18:44:32.744Z,86.54
2023-01-01T18:47:12.289Z,86.54
2023-01-01T18:49:39.742Z,86.82
2023-01-01T18:52:06.052Z,87.44
2023-01-01T18:54:33.032Z,87.71
2023-01-01T18:57:05.284Z,87.38
2023-01-01T18:59:32.127Z,88.04
2023-01-01T19:01:58.661Z,87.80
2023-01-01T19:04:25.069Z,87.53
2023-01-01T19:06:51.399Z,87.98
2023-01-01T19:09:23.240Z,87.38
2023-01-01T19:11:52.172Z,87.54
2023-01-01T19:14:20.988Z,87.23
2023-01-01T19:16:48.954Z,87.29
2023-01-01T19:19:24.431Z,87.95
2023-01-01T19:21:57.167Z,88.03
2023-01-01T19:24:26.327Z,87.69
2023-01-01T19:27:16.642Z,87.84
2023-01-01T19:29:45.773Z,88.20
2023-01-01T19:32:12.154Z,88.11
2023-01-01T19:34:39.640Z,88.70
2023-01-01T19:37:09.270Z,88.38
2023-01-01T19:39:35.995Z,88.73
2023-01-01T19:42:05.129Z,88.94
2023-01-01T19:44:32.190Z,88.86
2023-01-01T19:47:00.389Z,88.77
2023-01-01T19:49:27.976Z,89.10
2023-01-01T19:51:55.274Z,88.61
2023-01-01T19:54:21.919Z,88.57
2023-01-01T19:56:49.934Z,88.36
2023-01-01T19:59:16.268Z,88.19
2023-01-01T20:01:42.845Z,88.86
2023-01-01T20:04:09.406Z,88.79
2023-01-01T20:06:36.236Z,88.36
2023-01-01T20:09:03.357Z,88.61
2023-01-01T20:11:31.687Z,88.71
2023-01-01T20:13:58.387Z,88.12
2023-01-01T20:16:25.058Z,87.76
2023-01-01T20:18:51.744Z,88.10
2023-01-01T20:21:38.759Z,88.25
2023-01-01T20:24:05.859Z,88.00
2023-01-01T20:26:32.197Z,87.33
2023-01-01T20:29:33.907Z,88.13
2023-01-01T20:32:00.443Z,87.52
2023-01-01T20:34:26.960Z,87.41
2023-01-01T20:37:11.923Z,87.73
2023-01-01T20:39:38.584Z,87.56
2023-01-01T20:42:05.210Z,87.29
2023-01-01T20:44:31.647Z,87.46
2023-01-01T20:46:58.390Z,86.75
2023-01-01T20:49:24.893Z,87.01
2023-01-01T20:51:53.024Z,87.50
2023-01-01T20:54:23.098Z,87.54
2023-01-01T20:56:50.059Z,87.42
2023-01-01T21:02:04.934Z,87.19
2023-01-01T21:04:31.523Z,86.72
2023-01-01T21:07:00.786Z,87.35
2023-01-01T21:09:27.163Z,87.16
2023-01-01T21:11:53.580Z,87.13
2023-01-01T21:14:23.864Z,86.29
2023-01-01T21:16:51.696Z,86.62
2023-01-01T21:19:26.123Z,86.66
2023-01-01T21:21:55.758Z,86.33
2023-01-01T21:24:34.897Z,85.74
2023-01-01T21:27:13.132Z,86.03
2023-01-01T21:29:52.288Z,86.26
2023-01-01T21:32:28.043Z,85.59
2023-01-01T21:34:55.248Z,85.74
2023-01-01T21:37:45.930Z,85.38
2023-01-01T21:40:35.372Z,85.89
2023-01-01T21:43:01.650Z,85.67
2023-01-01T21:45:32.342Z,85.61
2023-01-01T21:48:10.947Z,85.66
2023-01-01T21:50:41.333Z,85.28
2023-01-01T21:53:15.918Z,84.73
2023-01-01T21:55:53.272Z,83.38
2023-01-01T21:58:50.824Z,82.40
2023-01-01T22:01:20.680Z,83.59
2023-01-01T22:03:55.671Z,82.89
2023-01-01T22:06:22.025Z,83.42
2023-01-01T22:08:48.454Z,83.22
2023-01-01T22:11:32.710Z,83.29
2023-01-01T22:14:01.323Z,82.21
2023-01-01T22:16:29.352Z,82.71
2023-01-01T22:18:56.711Z,82.61
2023-01-01T22:21:23.447Z,83.02
2023-01-01T22:23:55.816Z,82.84
2023-01-01T22:26:27.646Z,82.82
2023-01-01T22:29:01.577Z,82.39
2023-01-01T22:31:33.239Z,82.71
2023-01-01T22:34:01.646Z,83.76
2023-01-01T22:36:30.481Z,83.25
2023-01-01T22:39:12.271Z,83.81
2023-01-01T22:41:39.349Z,83.20
2023-01-01T22:44:06.614Z,82.67
2023-01-01T22:46:39.498Z,83.58
2023-01-01T22:49:30.802Z,82.98
2023-01-01T22:51:58.455Z,81.60
2023-01-01T22:54:24.838Z,82.07
2023-01-01T22:56:51.163Z,81.13
2023-01-01T22:59:17.511Z,80.64
2023-01-01T23:01:43.984Z,80.95
2023-01-01T23:04:10.403Z,80.95
2023-01-01T23:06:37.725Z,80.74
2023-01-01T23:09:04.883Z,80.57
2023-01-01T23:11:31.331Z,78.88
2023-01-01T23:14:16.213Z,78.50
2023-01-01T23:16:42.635Z,77.65
2023-01-01T23:19:09.003Z,77.27
2023-01-01T23:21:36.202Z,75.46
2023-01-01T23:24:06.379Z,74.71
2023-01-01T23:26:34.894Z,74.14
2023-01-01T23:29:02.763Z,73.83
2023-01-01T23:31:31.405Z,72.89
2023-01-01T23:33:58.869Z,73.40
2023-01-01T23:36:27.327Z,74.30
2023-01-01T23:38:54.140Z,72.67
2023-01-01T23:41:20.568Z,72.23
2023-01-01T23:43:46.929Z,73.39
2023-01-01T23:46:14.047Z,72.44
2023-01-01T23:48:43.267Z,72.39
2023-01-01T23:51:09.907Z,72.17
2023-01-01T23:53:36.306Z,71.22
2023-01-01T23:56:02.926Z,71.87
2023-01-01T23:58:29.251Z,71.10
